sensor_id;sensor_type;location;lat;lon;timestamp;P1;durP1;ratioP1;P2;durP2;ratioP2
72156;SDS011;60035;52.122;5.406;2023-12-28T00:01:47;6.20;;;2.30;;
72156;SDS011;60035;52.122;5.406;2023-12-28T00:04:15;6.30;;;1.90;;
72156;SDS011;60035;52.122;5.406;2023-12-28T00:06:41;6.72;;;1.88;;
72156;SDS011;60035;52.122;5.406;2023-12-28T00:09:08;6.72;;;2.22;;
72156;SDS011;60035;52.122;5.406;2023-12-28T00:11:37;7.70;;;2.05;;
72156;SDS011;60035;52.122;5.406;2023-12-28T00:14:05;8.68;;;2.65;;
72156;SDS011;60035;52.122;5.406;2023-12-28T00:16:31;6.78;;;2.22;;
72156;SDS011;60035;52.122;5.406;2023-12-28T00:19:03;9.23;;;2.40;;
72156;SDS011;60035;52.122;5.406;2023-12-28T00:21:31;4.72;;;1.90;;
72156;SDS011;60035;52.122;5.406;2023-12-28T00:23:58;7.85;;;2.38;;
72156;SDS011;60035;52.122;5.406;2023-12-28T00:26:24;7.72;;;1.77;;
72156;SDS011;60035;52.122;5.406;2023-12-28T00:28:51;8.52;;;2.78;;
72156;SDS011;60035;52.122;5.406;2023-12-28T00:31:17;6.05;;;2.30;;
72156;SDS011;60035;52.122;5.406;2023-12-28T00:33:44;9.77;;;2.53;;
72156;SDS011;60035;52.122;5.406;2023-12-28T00:36:11;8.50;;;2.10;;
72156;SDS011;60035;52.122;5.406;2023-12-28T00:38:38;7.85;;;2.90;;
72156;SDS011;60035;52.122;5.406;2023-12-28T00:41:04;5.97;;;1.92;;
72156;SDS011;60035;52.122;5.406;2023-12-28T00:43:31;6.63;;;2.10;;
72156;SDS011;60035;52.122;5.406;2023-12-28T00:45:58;7.70;;;2.45;;
72156;SDS011;60035;52.122;5.406;2023-12-28T00:48:24;5.78;;;2.25;;
72156;SDS011;60035;52.122;5.406;2023-12-28T00:50:52;5.93;;;2.08;;
72156;SDS011;60035;52.122;5.406;2023-12-28T00:53:21;6.60;;;1.88;;
72156;SDS011;60035;52.122;5.406;2023-12-28T00:55:48;6.65;;;2.33;;
72156;SDS011;60035;52.122;5.406;2023-12-28T00:58:15;7.18;;;2.60;;
72156;SDS011;60035;52.122;5.406;2023-12-28T01:00:41;7.18;;;2.40;;
72156;SDS011;60035;52.122;5.406;2023-12-28T01:03:08;8.13;;;2.40;;
72156;SDS011;60035;52.122;5.406;2023-12-28T01:05:35;8.05;;;2.40;;
72156;SDS011;60035;52.122;5.406;2023-12-28T01:08:02;6.88;;;1.77;;
72156;SDS011;60035;52.122;5.406;2023-12-28T01:10:28;6.65;;;2.30;;
72156;SDS011;60035;52.122;5.406;2023-12-28T01:12:55;8.27;;;2.38;;
72156;SDS011;60035;52.122;5.406;2023-12-28T01:15:22;7.00;;;2.42;;
72156;SDS011;60035;52.122;5.406;2023-12-28T01:17:48;7.32;;;2.15;;
72156;SDS011;60035;52.122;5.406;2023-12-28T01:20:15;7.40;;;2.30;;
72156;SDS011;60035;52.122;5.406;2023-12-28T01:22:41;5.20;;;2.05;;
72156;SDS011;60035;52.122;5.406;2023-12-28T01:25:08;8.63;;;2.95;;
72156;SDS011;60035;52.122;5.406;2023-12-28T01:27:34;6.43;;;2.20;;
72156;SDS011;60035;52.122;5.406;2023-12-28T01:30:01;7.00;;;2.15;;
72156;SDS011;60035;52.122;5.406;2023-12-28T01:32:28;4.90;;;1.77;;
72156;SDS011;60035;52.122;5.406;2023-12-28T01:34:55;7.78;;;2.22;;
72156;SDS011;60035;52.122;5.406;2023-12-28T01:37:22;5.88;;;2.30;;
72156;SDS011;60035;52.122;5.406;2023-12-28T01:39:49;6.85;;;1.90;;
72156;SDS011;60035;52.122;5.406;2023-12-28T01:42:16;7.28;;;2.40;;
72156;SDS011;60035;52.122;5.406;2023-12-28T01:44:42;7.28;;;1.63;;
72156;SDS011;60035;52.122;5.406;2023-12-28T01:47:09;10.00;;;2.47;;
72156;SDS011;60035;52.122;5.406;2023-12-28T01:49:36;7.88;;;2.13;;
72156;SDS011;60035;52.122;5.406;2023-12-28T01:52:03;6.57;;;2.20;;
72156;SDS011;60035;52.122;5.406;2023-12-28T01:54:31;7.60;;;2.40;;
72156;SDS011;60035;52.122;5.406;2023-12-28T01:56:58;9.48;;;2.53;;
72156;SDS011;60035;52.122;5.406;2023-12-28T01:59:27;7.93;;;2.17;;
72156;SDS011;60035;52.122;5.406;2023-12-28T02:01:53;7.20;;;2.03;;
72156;SDS011;60035;52.122;5.406;2023-12-28T02:04:21;8.85;;;3.10;;
72156;SDS011;60035;52.122;5.406;2023-12-28T02:06:55;9.32;;;1.90;;
72156;SDS011;60035;52.122;5.406;2023-12-28T02:09:22;7.20;;;2.45;;
72156;SDS011;60035;52.122;5.406;2023-12-28T02:11:49;6.97;;;2.10;;
72156;SDS011;60035;52.122;5.406;2023-12-28T02:14:16;6.32;;;2.20;;
72156;SDS011;60035;52.122;5.406;2023-12-28T02:16:44;6.57;;;2.45;;
72156;SDS011;60035;52.122;5.406;2023-12-28T02:22:18;5.35;;;1.67;;
72156;SDS011;60035;52.122;5.406;2023-12-28T02:24:58;10.15;;;2.72;;
72156;SDS011;60035;52.122;5.406;2023-12-28T02:27:41;6.85;;;2.28;;
72156;SDS011;60035;52.122;5.406;2023-12-28T02:30:09;7.95;;;1.98;;
72156;SDS011;60035;52.122;5.406;2023-12-28T02:37:55;4.93;;;1.67;;
72156;SDS011;60035;52.122;5.406;2023-12-28T02:40:24;8.10;;;2.15;;
72156;SDS011;60035;52.122;5.406;2023-12-28T02:42:52;7.28;;;1.50;;
72156;SDS011;60035;52.122;5.406;2023-12-28T02:45:19;9.30;;;2.05;;
72156;SDS011;60035;52.122;5.406;2023-12-28T02:47:46;5.35;;;1.85;;
72156;SDS011;60035;52.122;5.406;2023-12-28T02:50:14;7.15;;;1.67;;
72156;SDS011;60035;52.122;5.406;2023-12-28T02:52:40;6.13;;;1.75;;
72156;SDS011;60035;52.122;5.406;2023-12-28T02:55:07;5.07;;;1.98;;
72156;SDS011;60035;52.122;5.406;2023-12-28T02:57:34;5.20;;;1.65;;
72156;SDS011;60035;52.122;5.406;2023-12-28T03:00:07;8.00;;;1.88;;
72156;SDS011;60035;52.122;5.406;2023-12-28T03:02:37;10.35;;;2.17;;
72156;SDS011;60035;52.122;5.406;2023-12-28T03:05:04;8.00;;;1.55;;
72156;SDS011;60035;52.122;5.406;2023-12-28T03:07:35;6.22;;;1.98;;
72156;SDS011;60035;52.122;5.406;2023-12-28T03:10:03;7.38;;;2.00;;
72156;SDS011;60035;52.122;5.406;2023-12-28T03:12:30;6.15;;;1.65;;
72156;SDS011;60035;52.122;5.406;2023-12-28T03:14:57;5.03;;;1.60;;
72156;SDS011;60035;52.122;5.406;2023-12-28T03:17:23;7.65;;;2.00;;
72156;SDS011;60035;52.122;5.406;2023-12-28T03:19:51;8.27;;;1.92;;
72156;SDS011;60035;52.122;5.406;2023-12-28T03:22:17;7.63;;;1.48;;
72156;SDS011;60035;52.122;5.406;2023-12-28T03:24:44;7.40;;;1.40;;
72156;SDS011;60035;52.122;5.406;2023-12-28T03:27:11;4.85;;;1.90;;
72156;SDS011;60035;52.122;5.406;2023-12-28T03:29:37;10.43;;;2.10;;
72156;SDS011;60035;52.122;5.406;2023-12-28T03:32:04;8.43;;;1.65;;
72156;SDS011;60035;52.122;5.406;2023-12-28T03:34:31;5.50;;;1.85;;
72156;SDS011;60035;52.122;5.406;2023-12-28T03:36:58;7.78;;;1.60;;
72156;SDS011;60035;52.122;5.406;2023-12-28T03:39:25;5.28;;;1.73;;
72156;SDS011;60035;52.122;5.406;2023-12-28T03:41:52;10.05;;;2.05;;
72156;SDS011;60035;52.122;5.406;2023-12-28T03:44:19;9.88;;;2.58;;
72156;SDS011;60035;52.122;5.406;2023-12-28T03:46:49;11.38;;;1.52;;
72156;SDS011;60035;52.122;5.406;2023-12-28T03:49:17;6.00;;;1.92;;
72156;SDS011;60035;52.122;5.406;2023-12-28T03:51:45;8.82;;;1.65;;
72156;SDS011;60035;52.122;5.406;2023-12-28T03:54:12;6.18;;;1.50;;
72156;SDS011;60035;52.122;5.406;2023-12-28T03:56:38;7.80;;;1.98;;
72156;SDS011;60035;52.122;5.406;2023-12-28T03:59:09;7.97;;;1.70;;
72156;SDS011;60035;52.122;5.406;2023-12-28T04:01:36;6.65;;;1.85;;
72156;SDS011;60035;52.122;5.406;2023-12-28T04:04:02;8.20;;;1.90;;
72156;SDS011;60035;52.122;5.406;2023-12-28T04:06:29;7.47;;;1.60;;
72156;SDS011;60035;52.122;5.406;2023-12-28T04:08:56;8.45;;;1.58;;
72156;SDS011;60035;52.122;5.406;2023-12-28T04:11:22;6.95;;;1.90;;
72156;SDS011;60035;52.122;5.406;2023-12-28T04:13:49;10.38;;;2.45;;
72156;SDS011;60035;52.122;5.406;2023-12-28T04:16:16;7.57;;;1.92;;
72156;SDS011;60035;52.122;5.406;2023-12-28T04:18:42;8.18;;;2.00;;
72156;SDS011;60035;52.122;5.406;2023-12-28T04:21:11;9.75;;;2.03;;
72156;SDS011;60035;52.122;5.406;2023-12-28T04:23:39;8.50;;;2.08;;
72156;SDS011;60035;52.122;5.406;2023-12-28T04:26:06;8.57;;;1.95;;
72156;SDS011;60035;52.122;5.406;2023-12-28T04:28:33;8.82;;;2.30;;
72156;SDS011;60035;52.122;5.406;2023-12-28T04:31:03;7.38;;;1.42;;
72156;SDS011;60035;52.122;5.406;2023-12-28T04:33:31;10.98;;;1.85;;
72156;SDS011;60035;52.122;5.406;2023-12-28T04:36:01;7.40;;;1.88;;
72156;SDS011;60035;52.122;5.406;2023-12-28T04:38:32;9.05;;;2.15;;
72156;SDS011;60035;52.122;5.406;2023-12-28T04:40:59;7.68;;;2.22;;
72156;SDS011;60035;52.122;5.406;2023-12-28T04:43:26;10.07;;;1.70;;
72156;SDS011;60035;52.122;5.406;2023-12-28T04:45:53;8.52;;;1.55;;
72156;SDS011;60035;52.122;5.406;2023-12-28T04:48:19;6.88;;;2.00;;
72156;SDS011;60035;52.122;5.406;2023-12-28T04:50:47;10.43;;;1.63;;
72156;SDS011;60035;52.122;5.406;2023-12-28T04:53:14;7.32;;;1.75;;
72156;SDS011;60035;52.122;5.406;2023-12-28T04:55:41;7.18;;;1.98;;
72156;SDS011;60035;52.122;5.406;2023-12-28T04:58:08;8.68;;;1.27;;
72156;SDS011;60035;52.122;5.406;2023-12-28T05:00:36;9.18;;;1.63;;
72156;SDS011;60035;52.122;5.406;2023-12-28T05:03:03;7.40;;;1.20;;
72156;SDS011;60035;52.122;5.406;2023-12-28T05:05:30;11.07;;;1.65;;
72156;SDS011;60035;52.122;5.406;2023-12-28T05:07:56;6.78;;;1.38;;
72156;SDS011;60035;52.122;5.406;2023-12-28T05:10:23;11.13;;;1.45;;
72156;SDS011;60035;52.122;5.406;2023-12-28T05:12:50;9.85;;;1.40;;
72156;SDS011;60035;52.122;5.406;2023-12-28T05:15:16;7.30;;;1.30;;
72156;SDS011;60035;52.122;5.406;2023-12-28T05:17:45;9.00;;;1.70;;
72156;SDS011;60035;52.122;5.406;2023-12-28T05:20:12;8.13;;;1.20;;
72156;SDS011;60035;52.122;5.406;2023-12-28T05:22:38;11.10;;;1.60;;
72156;SDS011;60035;52.122;5.406;2023-12-28T05:25:05;10.65;;;1.88;;
72156;SDS011;60035;52.122;5.406;2023-12-28T05:27:32;9.75;;;1.48;;
72156;SDS011;60035;52.122;5.406;2023-12-28T05:29:58;9.77;;;1.67;;
72156;SDS011;60035;52.122;5.406;2023-12-28T05:32:25;9.75;;;1.85;;
72156;SDS011;60035;52.122;5.406;2023-12-28T05:34:51;9.82;;;1.63;;
72156;SDS011;60035;52.122;5.406;2023-12-28T05:37:18;8.05;;;1.50;;
72156;SDS011;60035;52.122;5.406;2023-12-28T05:39:45;12.95;;;1.85;;
72156;SDS011;60035;52.122;5.406;2023-12-28T05:42:11;9.88;;;1.50;;
72156;SDS011;60035;52.122;5.406;2023-12-28T05:44:38;10.05;;;1.60;;
72156;SDS011;60035;52.122;5.406;2023-12-28T05:47:04;9.35;;;1.58;;
72156;SDS011;60035;52.122;5.406;2023-12-28T05:49:31;12.93;;;2.15;;
72156;SDS011;60035;52.122;5.406;2023-12-28T05:51:58;11.73;;;1.88;;
72156;SDS011;60035;52.122;5.406;2023-12-28T05:54:25;9.65;;;1.70;;
72156;SDS011;60035;52.122;5.406;2023-12-28T05:56:52;12.00;;;1.63;;
72156;SDS011;60035;52.122;5.406;2023-12-28T05:59:19;10.38;;;1.80;;
72156;SDS011;60035;52.122;5.406;2023-12-28T06:01:47;6.22;;;1.48;;
72156;SDS011;60035;52.122;5.406;2023-12-28T06:04:14;9.00;;;1.52;;
72156;SDS011;60035;52.122;5.406;2023-12-28T06:06:41;9.77;;;1.55;;
72156;SDS011;60035;52.122;5.406;2023-12-28T06:09:08;7.80;;;1.73;;
72156;SDS011;60035;52.122;5.406;2023-12-28T06:11:34;9.35;;;1.80;;
72156;SDS011;60035;52.122;5.406;2023-12-28T06:14:01;9.45;;;1.98;;
72156;SDS011;60035;52.122;5.406;2023-12-28T06:16:27;11.10;;;1.77;;
72156;SDS011;60035;52.122;5.406;2023-12-28T06:18:57;14.85;;;1.45;;
72156;SDS011;60035;52.122;5.406;2023-12-28T06:21:24;9.35;;;1.58;;
72156;SDS011;60035;52.122;5.406;2023-12-28T06:23:50;12.70;;;2.05;;
72156;SDS011;60035;52.122;5.406;2023-12-28T06:26:17;13.80;;;1.83;;
72156;SDS011;60035;52.122;5.406;2023-12-28T06:28:46;10.48;;;1.83;;
72156;SDS011;60035;52.122;5.406;2023-12-28T06:31:13;9.38;;;1.40;;
72156;SDS011;60035;52.122;5.406;2023-12-28T06:33:40;8.82;;;1.40;;
72156;SDS011;60035;52.122;5.406;2023-12-28T06:36:07;14.18;;;2.28;;
72156;SDS011;60035;52.122;5.406;2023-12-28T06:38:34;12.35;;;2.05;;
72156;SDS011;60035;52.122;5.406;2023-12-28T06:41:01;13.30;;;1.90;;
72156;SDS011;60035;52.122;5.406;2023-12-28T06:43:27;13.82;;;2.13;;
72156;SDS011;60035;52.122;5.406;2023-12-28T06:45:54;11.45;;;1.85;;
72156;SDS011;60035;52.122;5.406;2023-12-28T06:48:20;9.30;;;2.00;;
72156;SDS011;60035;52.122;5.406;2023-12-28T06:50:47;9.40;;;1.38;;
72156;SDS011;60035;52.122;5.406;2023-12-28T06:53:14;10.85;;;1.98;;
72156;SDS011;60035;52.122;5.406;2023-12-28T06:55:40;11.35;;;1.85;;
72156;SDS011;60035;52.122;5.406;2023-12-28T06:58:07;11.85;;;1.42;;
72156;SDS011;60035;52.122;5.406;2023-12-28T07:00:34;14.70;;;2.35;;
72156;SDS011;60035;52.122;5.406;2023-12-28T07:03:01;8.70;;;1.77;;
72156;SDS011;60035;52.122;5.406;2023-12-28T07:05:27;11.45;;;2.17;;
72156;SDS011;60035;52.122;5.406;2023-12-28T07:07:54;15.77;;;1.75;;
72156;SDS011;60035;52.122;5.406;2023-12-28T07:10:21;12.35;;;2.60;;
72156;SDS011;60035;52.122;5.406;2023-12-28T07:12:47;15.35;;;2.28;;
72156;SDS011;60035;52.122;5.406;2023-12-28T07:15:14;11.57;;;1.55;;
72156;SDS011;60035;52.122;5.406;2023-12-28T07:17:41;13.90;;;1.38;;
72156;SDS011;60035;52.122;5.406;2023-12-28T07:20:09;10.50;;;1.40;;
72156;SDS011;60035;52.122;5.406;2023-12-28T07:22:37;12.70;;;1.95;;
72156;SDS011;60035;52.122;5.406;2023-12-28T07:25:07;16.27;;;2.55;;
72156;SDS011;60035;52.122;5.406;2023-12-28T07:27:34;13.98;;;2.00;;
72156;SDS011;60035;52.122;5.406;2023-12-28T07:30:01;11.15;;;1.75;;
72156;SDS011;60035;52.122;5.406;2023-12-28T07:32:28;19.33;;;2.17;;
72156;SDS011;60035;52.122;5.406;2023-12-28T07:34:56;13.75;;;1.63;;
72156;SDS011;60035;52.122;5.406;2023-12-28T07:37:23;13.88;;;2.15;;
72156;SDS011;60035;52.122;5.406;2023-12-28T07:39:49;13.07;;;2.05;;
72156;SDS011;60035;52.122;5.406;2023-12-28T07:42:16;11.35;;;1.85;;
72156;SDS011;60035;52.122;5.406;2023-12-28T07:44:43;14.98;;;2.47;;
72156;SDS011;60035;52.122;5.406;2023-12-28T07:47:09;9.20;;;1.30;;
72156;SDS011;60035;52.122;5.406;2023-12-28T07:49:36;12.38;;;2.67;;
72156;SDS011;60035;52.122;5.406;2023-12-28T07:52:03;11.00;;;1.85;;
72156;SDS011;60035;52.122;5.406;2023-12-28T07:54:30;10.65;;;1.60;;
72156;SDS011;60035;52.122;5.406;2023-12-28T07:56:56;12.73;;;1.92;;
72156;SDS011;60035;52.122;5.406;2023-12-28T07:59:23;8.38;;;1.77;;
72156;SDS011;60035;52.122;5.406;2023-12-28T08:01:50;14.55;;;2.05;;
72156;SDS011;60035;52.122;5.406;2023-12-28T08:04:16;10.75;;;1.25;;
72156;SDS011;60035;52.122;5.406;2023-12-28T08:06:43;14.00;;;1.48;;
72156;SDS011;60035;52.122;5.406;2023-12-28T08:09:12;12.07;;;1.58;;
72156;SDS011;60035;52.122;5.406;2023-12-28T08:11:38;11.05;;;1.80;;
72156;SDS011;60035;52.122;5.406;2023-12-28T08:14:05;14.70;;;2.25;;
72156;SDS011;60035;52.122;5.406;2023-12-28T08:16:32;16.00;;;2.25;;
72156;SDS011;60035;52.122;5.406;2023-12-28T08:18:58;12.27;;;2.17;;
72156;SDS011;60035;52.122;5.406;2023-12-28T08:21:25;10.73;;;2.13;;
72156;SDS011;60035;52.122;5.406;2023-12-28T08:23:51;14.77;;;2.25;;
72156;SDS011;60035;52.122;5.406;2023-12-28T08:26:18;9.68;;;1.50;;
72156;SDS011;60035;52.122;5.406;2023-12-28T08:28:44;12.43;;;1.63;;
72156;SDS011;60035;52.122;5.406;2023-12-28T08:31:12;19.70;;;2.20;;
72156;SDS011;60035;52.122;5.406;2023-12-28T08:33:40;12.30;;;2.17;;
72156;SDS011;60035;52.122;5.406;2023-12-28T08:36:07;15.93;;;2.10;;
72156;SDS011;60035;52.122;5.406;2023-12-28T08:38:34;13.40;;;2.40;;
72156;SDS011;60035;52.122;5.406;2023-12-28T08:41:01;12.93;;;2.55;;
72156;SDS011;60035;52.122;5.406;2023-12-28T08:43:29;18.58;;;2.38;;
72156;SDS011;60035;52.122;5.406;2023-12-28T08:45:56;11.27;;;2.10;;
72156;SDS011;60035;52.122;5.406;2023-12-28T08:48:23;10.60;;;1.60;;
72156;SDS011;60035;52.122;5.406;2023-12-28T08:50:50;13.60;;;1.58;;
72156;SDS011;60035;52.122;5.406;2023-12-28T08:53:17;12.43;;;2.00;;
72156;SDS011;60035;52.122;5.406;2023-12-28T08:55:43;10.88;;;1.30;;
72156;SDS011;60035;52.122;5.406;2023-12-28T08:58:10;12.90;;;1.73;;
72156;SDS011;60035;52.122;5.406;2023-12-28T09:00:36;11.98;;;1.50;;
72156;SDS011;60035;52.122;5.406;2023-12-28T09:03:04;12.90;;;2.17;;
72156;SDS011;60035;52.122;5.406;2023-12-28T09:05:30;15.77;;;1.70;;
72156;SDS011;60035;52.122;5.406;2023-12-28T09:07:57;17.23;;;2.70;;
72156;SDS011;60035;52.122;5.406;2023-12-28T09:10:24;12.75;;;1.52;;
72156;SDS011;60035;52.122;5.406;2023-12-28T09:12:51;11.93;;;2.10;;
72156;SDS011;60035;52.122;5.406;2023-12-28T09:15:18;11.15;;;1.60;;
72156;SDS011;60035;52.122;5.406;2023-12-28T09:17:44;17.60;;;1.70;;
72156;SDS011;60035;52.122;5.406;2023-12-28T09:20:11;15.48;;;2.13;;
72156;SDS011;60035;52.122;5.406;2023-12-28T09:22:38;14.32;;;2.25;;
72156;SDS011;60035;52.122;5.406;2023-12-28T09:25:05;14.25;;;2.28;;
72156;SDS011;60035;52.122;5.406;2023-12-28T09:27:32;13.50;;;1.90;;
72156;SDS011;60035;52.122;5.406;2023-12-28T09:29:58;9.43;;;2.30;;
72156;SDS011;60035;52.122;5.406;2023-12-28T09:32:25;12.70;;;2.17;;
72156;SDS011;60035;52.122;5.406;2023-12-28T09:34:51;17.17;;;2.30;;
72156;SDS011;60035;52.122;5.406;2023-12-28T09:37:18;17.35;;;2.08;;
72156;SDS011;60035;52.122;5.406;2023-12-28T09:39:44;13.93;;;2.05;;
72156;SDS011;60035;52.122;5.406;2023-12-28T09:42:22;14.90;;;2.30;;
72156;SDS011;60035;52.122;5.406;2023-12-28T09:44:53;11.52;;;1.83;;
72156;SDS011;60035;52.122;5.406;2023-12-28T09:47:20;13.90;;;1.83;;
72156;SDS011;60035;52.122;5.406;2023-12-28T09:49:46;13.18;;;1.77;;
72156;SDS011;60035;52.122;5.406;2023-12-28T09:52:13;14.30;;;2.00;;
72156;SDS011;60035;52.122;5.406;2023-12-28T09:54:40;10.20;;;2.03;;
72156;SDS011;60035;52.122;5.406;2023-12-28T09:57:06;12.65;;;1.95;;
72156;SDS011;60035;52.122;5.406;2023-12-28T09:59:34;14.65;;;1.50;;
72156;SDS011;60035;52.122;5.406;2023-12-28T10:02:01;13.38;;;1.48;;
72156;SDS011;60035;52.122;5.406;2023-12-28T10:04:29;12.05;;;1.88;;
72156;SDS011;60035;52.122;5.406;2023-12-28T10:06:56;16.00;;;2.47;;
72156;SDS011;60035;52.122;5.406;2023-12-28T10:09:24;12.65;;;1.80;;
72156;SDS011;60035;52.122;5.406;2023-12-28T10:11:54;13.82;;;2.33;;
72156;SDS011;60035;52.122;5.406;2023-12-28T10:14:20;15.55;;;2.05;;
72156;SDS011;60035;52.122;5.406;2023-12-28T10:16:47;9.45;;;1.55;;
72156;SDS011;60035;52.122;5.406;2023-12-28T10:19:14;14.95;;;2.78;;
72156;SDS011;60035;52.122;5.406;2023-12-28T10:21:41;12.32;;;2.22;;
72156;SDS011;60035;52.122;5.406;2023-12-28T10:24:10;11.02;;;1.92;;
72156;SDS011;60035;52.122;5.406;2023-12-28T10:26:37;17.80;;;1.90;;
72156;SDS011;60035;52.122;5.406;2023-12-28T10:29:03;14.23;;;1.90;;
72156;SDS011;60035;52.122;5.406;2023-12-28T10:31:31;14.30;;;1.70;;
72156;SDS011;60035;52.122;5.406;2023-12-28T10:33:59;11.07;;;1.83;;
72156;SDS011;60035;52.122;5.406;2023-12-28T10:36:29;19.45;;;2.42;;
72156;SDS011;60035;52.122;5.406;2023-12-28T10:38:56;14.02;;;2.72;;
72156;SDS011;60035;52.122;5.406;2023-12-28T10:41:23;17.75;;;2.17;;
72156;SDS011;60035;52.122;5.406;2023-12-28T10:46:32;15.63;;;2.03;;
72156;SDS011;60035;52.122;5.406;2023-12-28T10:49:00;13.80;;;1.60;;
72156;SDS011;60035;52.122;5.406;2023-12-28T10:51:34;11.43;;;1.85;;
72156;SDS011;60035;52.122;5.406;2023-12-28T10:56:41;15.68;;;2.45;;
72156;SDS011;60035;52.122;5.406;2023-12-28T10:59:16;14.82;;;2.17;;
72156;SDS011;60035;52.122;5.406;2023-12-28T11:01:43;16.40;;;2.08;;
72156;SDS011;60035;52.122;5.406;2023-12-28T11:07:02;14.88;;;2.00;;
72156;SDS011;60035;52.122;5.406;2023-12-28T11:09:31;16.75;;;2.22;;
72156;SDS011;60035;52.122;5.406;2023-12-28T11:11:59;16.38;;;1.73;;
72156;SDS011;60035;52.122;5.406;2023-12-28T11:14:28;12.80;;;1.67;;
72156;SDS011;60035;52.122;5.406;2023-12-28T11:16:55;12.52;;;2.13;;
72156;SDS011;60035;52.122;5.406;2023-12-28T11:19:23;15.27;;;2.00;;
72156;SDS011;60035;52.122;5.406;2023-12-28T11:21:50;14.30;;;1.60;;
72156;SDS011;60035;52.122;5.406;2023-12-28T11:24:18;17.45;;;2.55;;
72156;SDS011;60035;52.122;5.406;2023-12-28T11:26:51;8.65;;;1.50;;
72156;SDS011;60035;52.122;5.406;2023-12-28T11:29:22;13.88;;;2.20;;
72156;SDS011;60035;52.122;5.406;2023-12-28T11:31:53;14.45;;;2.17;;
72156;SDS011;60035;52.122;5.406;2023-12-28T11:34:30;17.65;;;2.42;;
72156;SDS011;60035;52.122;5.406;2023-12-28T11:37:01;17.67;;;2.03;;
72156;SDS011;60035;52.122;5.406;2023-12-28T11:39:31;13.10;;;2.10;;
72156;SDS011;60035;52.122;5.406;2023-12-28T11:42:04;13.05;;;2.13;;
72156;SDS011;60035;52.122;5.406;2023-12-28T11:44:38;17.95;;;1.77;;
72156;SDS011;60035;52.122;5.406;2023-12-28T11:47:14;18.20;;;1.80;;
72156;SDS011;60035;52.122;5.406;2023-12-28T11:49:42;12.68;;;2.03;;
72156;SDS011;60035;52.122;5.406;2023-12-28T11:52:21;10.85;;;1.35;;
72156;SDS011;60035;52.122;5.406;2023-12-28T11:54:52;13.60;;;1.55;;
72156;SDS011;60035;52.122;5.406;2023-12-28T11:57:19;13.48;;;1.77;;
72156;SDS011;60035;52.122;5.406;2023-12-28T11:59:48;12.88;;;2.05;;
72156;SDS011;60035;52.122;5.406;2023-12-28T12:02:19;13.70;;;2.20;;
72156;SDS011;60035;52.122;5.406;2023-12-28T12:04:46;13.32;;;2.25;;
72156;SDS011;60035;52.122;5.406;2023-12-28T12:07:12;16.38;;;1.75;;
72156;SDS011;60035;52.122;5.406;2023-12-28T12:09:39;14.88;;;2.58;;
72156;SDS011;60035;52.122;5.406;2023-12-28T12:12:06;10.60;;;1.48;;
72156;SDS011;60035;52.122;5.406;2023-12-28T12:14:33;14.88;;;1.30;;
72156;SDS011;60035;52.122;5.406;2023-12-28T12:17:00;14.90;;;1.67;;
72156;SDS011;60035;52.122;5.406;2023-12-28T12:19:28;16.95;;;2.33;;
72156;SDS011;60035;52.122;5.406;2023-12-28T12:21:56;13.90;;;1.45;;
72156;SDS011;60035;52.122;5.406;2023-12-28T12:24:23;16.50;;;1.98;;
72156;SDS011;60035;52.122;5.406;2023-12-28T12:26:51;14.75;;;1.60;;
72156;SDS011;60035;52.122;5.406;2023-12-28T12:29:18;13.38;;;1.45;;
72156;SDS011;60035;52.122;5.406;2023-12-28T12:31:53;14.23;;;1.67;;
72156;SDS011;60035;52.122;5.406;2023-12-28T12:34:20;17.33;;;1.60;;
72156;SDS011;60035;52.122;5.406;2023-12-28T12:36:47;14.75;;;1.67;;
72156;SDS011;60035;52.122;5.406;2023-12-28T12:39:15;18.77;;;1.90;;
72156;SDS011;60035;52.122;5.406;2023-12-28T12:41:41;12.65;;;1.80;;
72156;SDS011;60035;52.122;5.406;2023-12-28T12:44:08;12.65;;;1.67;;
72156;SDS011;60035;52.122;5.406;2023-12-28T12:46:36;10.90;;;2.53;;
72156;SDS011;60035;52.122;5.406;2023-12-28T12:49:03;12.95;;;2.17;;
72156;SDS011;60035;52.122;5.406;2023-12-28T12:51:31;10.60;;;2.10;;
72156;SDS011;60035;52.122;5.406;2023-12-28T12:53:58;14.93;;;1.98;;
72156;SDS011;60035;52.122;5.406;2023-12-28T12:56:31;13.80;;;2.10;;
72156;SDS011;60035;52.122;5.406;2023-12-28T12:58:58;15.70;;;1.95;;
72156;SDS011;60035;52.122;5.406;2023-12-28T13:01:25;13.90;;;1.95;;
72156;SDS011;60035;52.122;5.406;2023-12-28T13:03:51;13.48;;;1.25;;
72156;SDS011;60035;52.122;5.406;2023-12-28T13:06:18;14.88;;;1.95;;
72156;SDS011;60035;52.122;5.406;2023-12-28T13:08:49;12.65;;;2.28;;
72156;SDS011;60035;52.122;5.406;2023-12-28T13:11:15;14.13;;;1.85;;
72156;SDS011;60035;52.122;5.406;2023-12-28T13:13:42;13.15;;;1.55;;
72156;SDS011;60035;52.122;5.406;2023-12-28T13:16:08;16.35;;;1.98;;
72156;SDS011;60035;52.122;5.406;2023-12-28T13:18:35;13.13;;;2.15;;
72156;SDS011;60035;52.122;5.406;2023-12-28T13:21:02;12.13;;;1.52;;
72156;SDS011;60035;52.122;5.406;2023-12-28T13:23:29;15.05;;;1.63;;
72156;SDS011;60035;52.122;5.406;2023-12-28T13:25:56;13.60;;;1.65;;
72156;SDS011;60035;52.122;5.406;2023-12-28T13:28:22;15.98;;;2.30;;
72156;SDS011;60035;52.122;5.406;2023-12-28T13:30:49;11.90;;;1.65;;
72156;SDS011;60035;52.122;5.406;2023-12-28T13:33:17;17.95;;;2.22;;
72156;SDS011;60035;52.122;5.406;2023-12-28T13:35:44;19.92;;;2.28;;
72156;SDS011;60035;52.122;5.406;2023-12-28T13:38:10;15.55;;;1.70;;
72156;SDS011;60035;52.122;5.406;2023-12-28T13:40:37;14.32;;;2.00;;
72156;SDS011;60035;52.122;5.406;2023-12-28T13:43:04;14.25;;;1.73;;
72156;SDS011;60035;52.122;5.406;2023-12-28T13:45:30;13.30;;;1.90;;
72156;SDS011;60035;52.122;5.406;2023-12-28T13:47:57;12.07;;;1.75;;
72156;SDS011;60035;52.122;5.406;2023-12-28T13:50:24;10.95;;;1.52;;
72156;SDS011;60035;52.122;5.406;2023-12-28T13:52:50;15.95;;;1.80;;
72156;SDS011;60035;52.122;5.406;2023-12-28T13:55:16;13.95;;;1.92;;
72156;SDS011;60035;52.122;5.406;2023-12-28T13:57:43;14.85;;;1.52;;
72156;SDS011;60035;52.122;5.406;2023-12-28T14:00:10;14.45;;;1.95;;
72156;SDS011;60035;52.122;5.406;2023-12-28T14:02:37;15.35;;;1.95;;
72156;SDS011;60035;52.122;5.406;2023-12-28T14:05:06;17.20;;;2.10;;
72156;SDS011;60035;52.122;5.406;2023-12-28T14:07:33;19.27;;;1.90;;
72156;SDS011;60035;52.122;5.406;2023-12-28T14:10:00;12.98;;;2.17;;
72156;SDS011;60035;52.122;5.406;2023-12-28T14:12:27;19.38;;;2.00;;
72156;SDS011;60035;52.122;5.406;2023-12-28T14:14:54;13.40;;;1.70;;
72156;SDS011;60035;52.122;5.406;2023-12-28T14:17:20;16.67;;;2.10;;
72156;SDS011;60035;52.122;5.406;2023-12-28T14:19:47;15.10;;;2.00;;
72156;SDS011;60035;52.122;5.406;2023-12-28T14:22:14;13.82;;;1.40;;
72156;SDS011;60035;52.122;5.406;2023-12-28T14:24:41;15.10;;;1.30;;
72156;SDS011;60035;52.122;5.406;2023-12-28T14:27:08;9.95;;;1.08;;
72156;SDS011;60035;52.122;5.406;2023-12-28T14:29:38;10.82;;;2.08;;
72156;SDS011;60035;52.122;5.406;2023-12-28T14:32:05;10.90;;;1.95;;
72156;SDS011;60035;52.122;5.406;2023-12-28T14:34:32;16.67;;;2.40;;
72156;SDS011;60035;52.122;5.406;2023-12-28T14:36:59;14.68;;;1.58;;
72156;SDS011;60035;52.122;5.406;2023-12-28T14:39:26;16.63;;;2.47;;
72156;SDS011;60035;52.122;5.406;2023-12-28T14:41:53;14.10;;;2.30;;
72156;SDS011;60035;52.122;5.406;2023-12-28T14:44:19;17.45;;;2.30;;
72156;SDS011;60035;52.122;5.406;2023-12-28T14:46:46;16.58;;;2.10;;
72156;SDS011;60035;52.122;5.406;2023-12-28T14:49:13;12.40;;;2.55;;
72156;SDS011;60035;52.122;5.406;2023-12-28T14:51:39;16.33;;;2.35;;
72156;SDS011;60035;52.122;5.406;2023-12-28T14:54:06;17.90;;;1.80;;
72156;SDS011;60035;52.122;5.406;2023-12-28T14:56:32;13.90;;;1.73;;
72156;SDS011;60035;52.122;5.406;2023-12-28T14:59:13;15.40;;;1.65;;